createdAt,value
2022-08-26T00:01:56.147Z,1.48
2022-08-26T00:04:25.187Z,1.70
2022-08-26T00:06:52.527Z,1.30
2022-08-26T00:09:19.244Z,1.67
2022-08-26T00:11:46.094Z,1.65
2022-08-26T00:14:14.158Z,1.40
2022-08-26T00:16:40.948Z,1.58
2022-08-26T00:19:13.716Z,1.38
2022-08-26T00:21:41.230Z,1.40
2022-08-26T00:24:07.718Z,1.50
2022-08-26T00:26:34.950Z,1.70
2022-08-26T00:29:01.829Z,1.70
2022-08-26T00:31:28.873Z,1.77
2022-08-26T00:33:57.933Z,1.63
2022-08-26T00:36:24.454Z,1.30
2022-08-26T00:38:51.076Z,1.60
2022-08-26T00:41:19.295Z,2.00
2022-08-26T00:43:47.945Z,1.50
2022-08-26T00:46:17.129Z,1.27
2022-08-26T00:48:45.243Z,1.30
2022-08-26T00:51:15.847Z,1.27
2022-08-26T00:53:45.917Z,1.50
2022-08-26T00:56:20.696Z,1.48
2022-08-26T00:58:48.139Z,1.48
2022-08-26T01:01:14.829Z,1.42
2022-08-26T01:03:42.302Z,1.30
2022-08-26T01:06:12.484Z,1.50
2022-08-26T01:08:39.906Z,1.40
2022-08-26T01:11:06.564Z,1.35
2022-08-26T01:13:36.388Z,1.40
2022-08-26T01:16:04.121Z,1.50
2022-08-26T01:18:31.777Z,1.67
2022-08-26T01:20:58.236Z,1.20
2022-08-26T01:23:28.927Z,1.42
2022-08-26T01:25:59.422Z,1.52
2022-08-26T01:28:28.197Z,1.20
2022-08-26T01:30:55.638Z,1.30
2022-08-26T01:33:31.755Z,1.20
2022-08-26T01:36:09.434Z,1.35
2022-08-26T01:38:35.912Z,1.30
2022-08-26T01:41:03.159Z,1.30
2022-08-26T01:43:46.839Z,1.25
2022-08-26T01:46:16.019Z,1.17
2022-08-26T01:48:44.258Z,1.10
2022-08-26T01:51:11.899Z,1.30
2022-08-26T01:53:38.707Z,1.23
2022-08-26T01:56:09.611Z,1.38
2022-08-26T01:58:39.912Z,1.08
2022-08-26T02:01:06.825Z,1.20
2022-08-26T02:03:40.028Z,1.42
2022-08-26T02:06:09.296Z,1.10
2022-08-26T02:08:41.000Z,1.33
2022-08-26T02:11:07.806Z,1.30
2022-08-26T02:13:37.864Z,1.23
2022-08-26T02:16:04.660Z,1.20
2022-08-26T02:18:37.022Z,1.10
2022-08-26T02:21:03.674Z,1.30
2022-08-26T02:23:33.313Z,1.40
2022-08-26T02:26:20.665Z,1.45
2022-08-26T02:28:51.973Z,1.20
2022-08-26T02:31:18.577Z,1.17
2022-08-26T02:33:45.065Z,1.08
2022-08-26T02:36:12.107Z,1.17
2022-08-26T02:38:39.859Z,1.38
2022-08-26T02:41:10.211Z,1.10
2022-08-26T02:43:36.890Z,1.20
2022-08-26T02:46:03.839Z,1.10
2022-08-26T02:48:30.970Z,1.20
2022-08-26T02:50:59.069Z,1.15
2022-08-26T02:53:25.756Z,1.25
2022-08-26T02:55:52.329Z,1.15
2022-08-26T02:58:18.952Z,1.10
2022-08-26T03:00:53.147Z,0.90
2022-08-26T03:03:20.735Z,1.20
2022-08-26T03:05:50.048Z,1.20
2022-08-26T03:08:16.502Z,1.20
2022-08-26T03:10:42.955Z,1.00
2022-08-26T03:13:09.637Z,1.25
2022-08-26T03:15:36.198Z,1.15
2022-08-26T03:18:03.865Z,1.05
2022-08-26T03:20:30.672Z,1.20
2022-08-26T03:22:57.170Z,0.93
2022-08-26T03:25:25.209Z,1.08
2022-08-26T03:27:52.632Z,1.00
2022-08-26T03:30:38.237Z,1.30
2022-08-26T03:33:12.173Z,1.30
2022-08-26T03:35:40.748Z,1.35
2022-08-26T03:38:08.379Z,1.00
2022-08-26T03:40:36.654Z,1.00
2022-08-26T03:43:04.102Z,1.10
2022-08-26T03:45:30.638Z,1.10
2022-08-26T03:47:57.870Z,1.10
2022-08-26T03:50:25.070Z,1.08
2022-08-26T03:52:54.077Z,1.08
2022-08-26T03:55:23.726Z,1.20
2022-08-26T03:57:50.608Z,1.23
2022-08-26T04:00:18.374Z,1.45
2022-08-26T04:02:46.288Z,1.35
2022-08-26T04:05:13.932Z,1.20
2022-08-26T04:07:41.120Z,1.17
2022-08-26T04:10:07.949Z,1.20
2022-08-26T04:12:37.281Z,0.90
2022-08-26T04:15:07.995Z,1.00
2022-08-26T04:17:34.713Z,1.20
2022-08-26T04:20:02.048Z,0.95
2022-08-26T04:22:28.546Z,1.10
2022-08-26T04:24:55.836Z,1.15
2022-08-26T04:27:22.707Z,1.30
2022-08-26T04:29:52.408Z,1.10
2022-08-26T04:32:21.568Z,1.20
2022-08-26T04:34:48.009Z,1.15
2022-08-26T04:37:16.434Z,0.98
2022-08-26T04:39:43.992Z,1.25
2022-08-26T04:42:10.915Z,1.00
2022-08-26T04:44:37.795Z,1.20
2022-08-26T04:47:05.970Z,1.10
2022-08-26T04:49:35.441Z,1.02
2022-08-26T04:52:02.528Z,1.27
2022-08-26T04:54:29.111Z,1.10
2022-08-26T04:56:55.957Z,1.30
2022-08-26T04:59:22.634Z,1.00
2022-08-26T05:01:52.073Z,0.90
2022-08-26T05:04:19.647Z,1.00
2022-08-26T05:06:47.006Z,1.17
2022-08-26T05:09:14.578Z,1.13
2022-08-26T05:11:41.836Z,1.50
2022-08-26T05:14:08.372Z,1.35
2022-08-26T05:16:34.888Z,1.40
2022-08-26T05:19:01.594Z,1.13
2022-08-26T05:21:29.148Z,1.48
2022-08-26T05:23:56.393Z,1.10
2022-08-26T05:26:24.046Z,1.38
2022-08-26T05:28:54.666Z,1.20
2022-08-26T05:31:39.787Z,1.30
2022-08-26T05:34:07.039Z,1.42
2022-08-26T05:36:35.610Z,1.50
2022-08-26T05:39:05.149Z,1.60
2022-08-26T05:41:36.201Z,1.50
2022-08-26T05:44:05.150Z,1.10
2022-08-26T05:46:31.778Z,1.27
2022-08-26T05:48:58.792Z,1.30
2022-08-26T05:51:26.254Z,1.38
2022-08-26T05:53:54.576Z,1.58
2022-08-26T05:56:24.877Z,1.50
2022-08-26T05:58:52.078Z,1.50
2022-08-26T06:01:20.426Z,1.30
2022-08-26T06:03:50.177Z,1.60
2022-08-26T06:06:43.256Z,1.40
2022-08-26T06:09:11.524Z,1.30
2022-08-26T06:11:38.841Z,1.60
2022-08-26T06:14:06.257Z,1.35
2022-08-26T06:16:34.960Z,1.70
2022-08-26T06:19:02.813Z,1.70
2022-08-26T06:21:31.491Z,1.55
2022-08-26T06:24:19.243Z,1.63
2022-08-26T06:26:50.664Z,1.90
2022-08-26T06:29:24.598Z,1.80
2022-08-26T06:31:51.950Z,1.55
2022-08-26T06:34:18.648Z,1.58
2022-08-26T06:36:45.261Z,1.52
2022-08-26T06:39:13.795Z,2.10
2022-08-26T06:41:43.390Z,1.73
2022-08-26T06:44:10.353Z,1.95
2022-08-26T06:46:36.889Z,1.70
2022-08-26T06:49:03.749Z,2.30
2022-08-26T06:51:32.216Z,1.52
2022-08-26T06:54:02.260Z,1.90
2022-08-26T06:56:32.525Z,1.85
2022-08-26T06:58:58.937Z,1.90
2022-08-26T07:01:35.386Z,1.90
2022-08-26T07:04:04.213Z,1.92
2022-08-26T07:06:39.033Z,1.90
2022-08-26T07:09:07.057Z,1.92
2022-08-26T07:11:36.993Z,2.15
2022-08-26T07:14:04.376Z,1.60
2022-08-26T07:16:30.884Z,1.85
2022-08-26T07:18:57.683Z,1.85
2022-08-26T07:21:24.968Z,2.08
2022-08-26T07:23:52.318Z,2.20
2022-08-26T07:26:21.032Z,1.88
2022-08-26T07:28:50.649Z,2.40
2022-08-26T07:31:21.472Z,1.88
2022-08-26T07:33:48.233Z,2.08
2022-08-26T07:36:15.166Z,1.90
2022-08-26T07:38:41.848Z,1.92
2022-08-26T07:41:08.989Z,1.85
2022-08-26T07:43:36.085Z,1.75
2022-08-26T07:46:06.020Z,2.00
2022-08-26T07:48:33.338Z,1.70
2022-08-26T07:51:00.507Z,1.58
2022-08-26T07:53:26.898Z,2.00
2022-08-26T07:55:53.371Z,1.90
2022-08-26T07:58:19.997Z,1.55
2022-08-26T08:00:46.587Z,1.60
2022-08-26T08:03:14.940Z,1.63
2022-08-26T08:05:42.208Z,1.77
2022-08-26T08:08:26.254Z,1.67
2022-08-26T08:10:55.219Z,1.73
2022-08-26T08:13:21.660Z,1.90
2022-08-26T08:15:48.073Z,1.60
2022-08-26T08:18:16.802Z,1.60
2022-08-26T08:20:47.691Z,1.70
2022-08-26T08:23:31.562Z,1.50
2022-08-26T08:26:05.057Z,1.73
2022-08-26T08:28:32.283Z,1.58
2022-08-26T08:30:58.950Z,1.80
2022-08-26T08:33:26.236Z,1.75
2022-08-26T08:35:52.699Z,1.85
2022-08-26T08:38:19.145Z,1.90
2022-08-26T08:40:46.333Z,1.95
2022-08-26T08:43:14.420Z,1.95
2022-08-26T08:45:44.198Z,1.90
2022-08-26T08:48:22.266Z,2.22
2022-08-26T08:50:56.636Z,1.77
2022-08-26T08:53:33.711Z,2.08
2022-08-26T08:56:01.279Z,1.90
2022-08-26T08:58:46.584Z,2.35
2022-08-26T09:01:24.167Z,2.40
2022-08-26T09:03:55.555Z,2.03
2022-08-26T09:06:23.435Z,2.25
2022-08-26T09:08:54.156Z,2.40
2022-08-26T09:11:21.006Z,2.00
2022-08-26T09:13:48.904Z,1.75
2022-08-26T09:16:19.126Z,2.30
2022-08-26T09:18:52.896Z,2.00
2022-08-26T09:21:19.978Z,2.17
2022-08-26T09:23:49.714Z,1.92
2022-08-26T09:26:16.230Z,1.83
2022-08-26T09:28:45.169Z,2.20
2022-08-26T09:31:13.688Z,2.05
2022-08-26T09:33:41.552Z,1.80
2022-08-26T09:36:12.826Z,2.30
2022-08-26T09:38:39.411Z,2.25
2022-08-26T09:41:18.964Z,2.05
2022-08-26T09:44:06.324Z,1.95
2022-08-26T09:46:33.104Z,2.20
2022-08-26T09:49:20.053Z,2.00
2022-08-26T09:51:46.842Z,1.80
2022-08-26T09:54:30.321Z,2.20
2022-08-26T09:57:12.920Z,1.98
2022-08-26T09:59:39.916Z,2.17
2022-08-26T10:02:24.985Z,2.28
2022-08-26T10:04:54.074Z,1.83
2022-08-26T10:07:35.599Z,1.95
2022-08-26T10:10:04.603Z,1.90
2022-08-26T10:12:34.684Z,2.17
2022-08-26T10:15:03.609Z,1.90
2022-08-26T10:18:05.989Z,2.10
2022-08-26T10:20:37.448Z,1.77
2022-08-26T10:23:09.777Z,1.88
2022-08-26T10:25:40.843Z,1.90
2022-08-26T10:28:18.127Z,1.95
2022-08-26T10:30:51.735Z,1.60
2022-08-26T10:33:19.349Z,1.60
2022-08-26T10:36:06.489Z,1.80
2022-08-26T10:38:34.715Z,1.80
2022-08-26T10:41:09.993Z,1.80
2022-08-26T10:43:41.016Z,1.90
2022-08-26T10:46:14.693Z,1.73
2022-08-26T10:48:44.139Z,1.63
2022-08-26T10:51:12.118Z,1.70
2022-08-26T10:53:56.724Z,1.50
2022-08-26T10:56:26.685Z,1.45
2022-08-26T10:58:57.662Z,1.90
2022-08-26T11:01:47.220Z,1.60
2022-08-26T11:04:31.420Z,1.65
2022-08-26T11:07:20.189Z,1.60
2022-08-26T11:09:49.740Z,1.60
2022-08-26T11:12:34.603Z,1.50
2022-08-26T11:15:02.361Z,1.30
2022-08-26T11:17:44.075Z,1.73
2022-08-26T11:20:23.818Z,1.60
2022-08-26T11:22:51.468Z,1.45
2022-08-26T11:25:18.748Z,1.50
2022-08-26T11:27:48.112Z,1.75
2022-08-26T11:30:21.428Z,1.30
2022-08-26T11:32:51.898Z,2.00
2022-08-26T11:35:19.291Z,1.48
2022-08-26T11:37:48.876Z,1.40
2022-08-26T11:40:17.966Z,1.45
2022-08-26T11:42:51.923Z,1.58
2022-08-26T11:45:24.836Z,1.40
2022-08-26T11:47:51.538Z,1.35
2022-08-26T11:50:20.518Z,1.63
2022-08-26T11:52:54.490Z,1.45
2022-08-26T11:55:23.443Z,1.55
2022-08-26T11:57:55.507Z,1.40
2022-08-26T12:00:26.536Z,1.40
2022-08-26T12:02:53.478Z,1.50
2022-08-26T12:05:30.840Z,1.70
2022-08-26T12:07:59.436Z,1.50
2022-08-26T12:10:36.156Z,1.63
2022-08-26T12:13:03.575Z,1.52
2022-08-26T12:15:31.027Z,1.20
2022-08-26T12:18:00.359Z,1.65
2022-08-26T12:20:45.835Z,1.40
2022-08-26T12:23:22.691Z,1.60
2022-08-26T12:25:51.935Z,1.27
2022-08-26T12:28:18.696Z,1.30
2022-08-26T12:31:09.836Z,1.27
2022-08-26T12:33:36.653Z,1.58
2022-08-26T12:36:04.941Z,1.38
2022-08-26T12:38:32.106Z,1.42
2022-08-26T12:41:02.768Z,1.60
2022-08-26T12:43:39.526Z,1.40
2022-08-26T12:46:12.227Z,1.33
2022-08-26T12:48:40.640Z,1.30
2022-08-26T12:51:08.627Z,1.65
2022-08-26T12:53:40.872Z,1.42
2022-08-26T12:56:30.218Z,1.50
2022-08-26T12:59:01.184Z,1.20
2022-08-26T13:01:28.021Z,1.40
2022-08-26T13:03:54.681Z,1.60
2022-08-26T13:06:26.280Z,1.50
2022-08-26T13:08:55.808Z,1.40
2022-08-26T13:11:22.369Z,1.40
2022-08-26T13:13:51.808Z,1.42
2022-08-26T13:16:19.701Z,1.35
2022-08-26T13:19:05.921Z,1.38
2022-08-26T13:21:43.008Z,1.40
2022-08-26T13:24:14.171Z,1.40
2022-08-26T13:26:41.375Z,1.20
2022-08-26T13:29:10.386Z,1.30
2022-08-26T13:31:38.802Z,1.33
2022-08-26T13:34:05.539Z,1.20
2022-08-26T13:36:32.059Z,1.35
2022-08-26T13:38:59.003Z,1.20
2022-08-26T13:41:29.104Z,1.40
2022-08-26T13:43:57.042Z,1.40
2022-08-26T13:46:26.205Z,1.10
2022-08-26T13:48:54.605Z,1.17
2022-08-26T13:51:22.705Z,1.20
2022-08-26T13:53:52.645Z,1.05
2022-08-26T13:56:20.072Z,1.58
2022-08-26T13:58:47.186Z,1.30
2022-08-26T14:01:14.142Z,1.25
2022-08-26T14:03:40.943Z,1.40
2022-08-26T14:06:07.678Z,1.40
2022-08-26T14:08:34.279Z,1.15
2022-08-26T14:11:00.836Z,1.30
2022-08-26T14:13:27.350Z,1.15
2022-08-26T14:15:54.211Z,1.20
2022-08-26T14:18:23.872Z,1.30
2022-08-26T14:20:52.750Z,1.20
2022-08-26T14:23:23.304Z,1.08
2022-08-26T14:25:49.844Z,1.00
2022-08-26T14:28:16.581Z,1.38
2022-08-26T14:30:44.005Z,1.38
2022-08-26T14:33:14.603Z,1.15
2022-08-26T14:35:41.302Z,1.30
2022-08-26T14:38:14.727Z,1.10
2022-08-26T14:40:44.656Z,1.40
2022-08-26T14:43:15.920Z,1.40
2022-08-26T14:45:59.788Z,1.30
2022-08-26T14:48:27.470Z,1.40
2022-08-26T14:50:54.101Z,1.25
2022-08-26T14:53:39.061Z,1.35
2022-08-26T14:56:06.355Z,1.30
2022-08-26T14:58:33.843Z,1.23
2022-08-26T15:01:04.250Z,1.30
2022-08-26T15:03:31.024Z,1.15
2022-08-26T15:05:58.120Z,1.20
2022-08-26T15:08:25.540Z,1.10
2022-08-26T15:10:51.976Z,1.00
2022-08-26T15:13:18.367Z,1.10
2022-08-26T15:16:26.241Z,1.20
2022-08-26T15:18:53.116Z,0.93
2022-08-26T15:21:20.309Z,1.10
2022-08-26T15:23:48.078Z,1.30
2022-08-26T15:26:15.227Z,1.10
2022-08-26T15:28:41.793Z,1.23
2022-08-26T15:31:08.631Z,1.00
2022-08-26T15:33:35.779Z,1.35
2022-08-26T15:36:03.142Z,1.35
2022-08-26T15:38:35.145Z,1.30
2022-08-26T15:41:03.201Z,1.05
2022-08-26T15:43:29.849Z,1.15
2022-08-26T15:45:56.960Z,1.38
2022-08-26T15:48:24.591Z,1.40
2022-08-26T15:50:53.550Z,1.30
2022-08-26T15:53:21.450Z,1.10
2022-08-26T15:55:48.113Z,1.30
2022-08-26T15:58:15.021Z,1.40
2022-08-26T16:00:43.103Z,1.10
2022-08-26T16:03:09.750Z,1.20
2022-08-26T16:05:40.789Z,1.05
2022-08-26T16:08:07.831Z,1.23
2022-08-26T16:10:35.575Z,1.05
2022-08-26T16:13:02.265Z,1.05
2022-08-26T16:15:28.856Z,1.00
2022-08-26T16:17:58.544Z,1.00
2022-08-26T16:20:26.179Z,1.35
2022-08-26T16:22:52.610Z,1.13
2022-08-26T16:25:19.774Z,1.08
2022-08-26T16:27:46.243Z,0.98
2022-08-26T16:30:14.155Z,0.90
2022-08-26T16:32:40.646Z,1.27
2022-08-26T16:35:07.369Z,1.10
2022-08-26T16:37:35.511Z,0.90
2022-08-26T16:40:05.256Z,0.95
2022-08-26T16:42:31.740Z,1.10
2022-08-26T16:44:59.032Z,1.17
2022-08-26T16:47:25.600Z,1.02
2022-08-26T16:49:52.144Z,1.23
2022-08-26T16:52:18.629Z,1.17
2022-08-26T16:54:45.131Z,1.33
2022-08-26T16:57:12.179Z,1.20
2022-08-26T16:59:39.715Z,0.90
2022-08-26T17:02:06.267Z,1.30
2022-08-26T17:04:32.785Z,1.08
2022-08-26T17:06:59.518Z,1.30
2022-08-26T17:09:26.844Z,1.00
2022-08-26T17:11:54.364Z,1.30
2022-08-26T17:14:21.075Z,1.10
2022-08-26T17:16:51.205Z,0.80
2022-08-26T17:19:18.140Z,1.17
2022-08-26T17:21:45.037Z,1.13
2022-08-26T17:24:11.896Z,1.08
2022-08-26T17:26:38.440Z,1.10
2022-08-26T17:29:07.282Z,1.10
2022-08-26T17:31:33.977Z,1.33
2022-08-26T17:34:00.747Z,1.00
2022-08-26T17:36:28.469Z,0.98
2022-08-26T17:38:55.289Z,1.23
2022-08-26T17:41:21.915Z,1.10
2022-08-26T17:43:48.474Z,1.00
2022-08-26T17:46:14.971Z,0.77
2022-08-26T17:48:41.647Z,0.85
2022-08-26T17:51:09.039Z,0.90
2022-08-26T17:53:35.577Z,0.90
2022-08-26T17:56:02.307Z,0.85
2022-08-26T17:58:28.739Z,1.00
2022-08-26T18:00:55.635Z,1.13
2022-08-26T18:03:22.911Z,0.95
2022-08-26T18:05:50.618Z,1.10
2022-08-26T18:08:17.129Z,1.20
2022-08-26T18:10:44.226Z,0.93
2022-08-26T18:13:11.031Z,1.27
2022-08-26T18:15:41.284Z,0.80
2022-08-26T18:18:08.268Z,0.90
2022-08-26T18:20:34.769Z,1.00
2022-08-26T18:23:01.204Z,1.20
2022-08-26T18:25:27.771Z,1.10
2022-08-26T18:27:54.423Z,1.00
2022-08-26T18:30:21.756Z,0.88
2022-08-26T18:32:49.277Z,0.98
2022-08-26T18:35:16.360Z,1.17
2022-08-26T18:37:42.852Z,1.10
2022-08-26T18:40:10.850Z,1.17
2022-08-26T18:42:37.469Z,1.20
2022-08-26T18:45:05.160Z,0.90
2022-08-26T18:47:32.648Z,1.08
2022-08-26T18:50:00.533Z,0.70
2022-08-26T18:52:27.126Z,1.00
2022-08-26T18:54:53.765Z,0.95
2022-08-26T18:57:20.427Z,1.10
2022-08-26T18:59:47.076Z,1.35
2022-08-26T19:02:13.875Z,1.05
2022-08-26T19:04:40.486Z,1.35
2022-08-26T19:07:07.342Z,1.40
2022-08-26T19:09:33.909Z,1.15
2022-08-26T19:12:02.367Z,1.20
2022-08-26T19:14:28.973Z,1.15
2022-08-26T19:16:55.525Z,1.20
2022-08-26T19:19:24.194Z,1.42
2022-08-26T19:21:51.702Z,1.00
2022-08-26T19:24:18.602Z,1.17
2022-08-26T19:26:46.408Z,1.35
2022-08-26T19:29:13.572Z,1.25
2022-08-26T19:31:40.888Z,1.33
2022-08-26T19:34:10.290Z,1.55
2022-08-26T19:36:38.385Z,1.00
2022-08-26T19:39:09.677Z,1.23
2022-08-26T19:41:37.910Z,1.15
2022-08-26T19:44:10.370Z,1.10
2022-08-26T19:51:35.327Z,1.15
2022-08-26T19:54:01.946Z,1.10
2022-08-26T19:56:29.085Z,1.00
2022-08-26T19:58:56.356Z,1.13
2022-08-26T20:01:23.418Z,0.85
2022-08-26T20:03:50.671Z,1.05
2022-08-26T20:06:17.442Z,1.02
2022-08-26T20:08:44.348Z,0.90
2022-08-26T20:11:13.123Z,1.15
2022-08-26T20:13:40.520Z,1.20
2022-08-26T20:16:07.480Z,1.00
2022-08-26T20:18:52.338Z,1.10
2022-08-26T20:21:27.764Z,1.08
2022-08-26T20:23:54.942Z,1.02
2022-08-26T20:26:21.382Z,1.10
2022-08-26T20:28:48.013Z,1.13
2022-08-26T20:31:19.385Z,1.20
2022-08-26T20:33:46.765Z,1.20
2022-08-26T20:36:13.669Z,1.25
2022-08-26T20:38:40.152Z,0.80
2022-08-26T20:41:06.893Z,1.10
2022-08-26T20:43:33.629Z,1.35
2022-08-26T20:46:00.761Z,1.23
2022-08-26T20:48:27.304Z,1.20
2022-08-26T20:50:56.815Z,1.63
2022-08-26T20:53:24.247Z,1.10
2022-08-26T20:55:53.791Z,1.10
2022-08-26T20:58:20.960Z,1.00
2022-08-26T21:00:47.666Z,1.48
2022-08-26T21:03:14.380Z,1.02
2022-08-26T21:05:41.156Z,1.33
2022-08-26T21:08:07.812Z,1.30
2022-08-26T21:10:34.677Z,1.05
2022-08-26T21:13:02.615Z,1.30
2022-08-26T21:15:29.751Z,1.08
2022-08-26T21:17:58.349Z,1.23
2022-08-26T21:20:24.944Z,0.90
2022-08-26T21:22:51.783Z,1.15
2022-08-26T21:25:18.448Z,1.10
2022-08-26T21:27:44.908Z,1.10
2022-08-26T21:30:13.280Z,1.30
2022-08-26T21:32:39.943Z,1.13
2022-08-26T21:35:06.747Z,1.20
2022-08-26T21:37:33.238Z,0.90
2022-08-26T21:40:01.946Z,1.20
2022-08-26T21:42:32.256Z,1.02
2022-08-26T21:44:59.071Z,1.05
2022-08-26T21:47:25.695Z,1.05
2022-08-26T21:49:52.347Z,1.00
2022-08-26T21:52:19.280Z,0.95
2022-08-26T21:54:49.321Z,1.05
2022-08-26T21:57:16.315Z,1.10
2022-08-26T21:59:42.741Z,0.98
2022-08-26T22:02:09.353Z,0.98
2022-08-26T22:04:36.000Z,1.10
2022-08-26T22:07:02.495Z,1.10
2022-08-26T22:09:30.996Z,1.10
2022-08-26T22:11:58.087Z,0.95
2022-08-26T22:14:30.623Z,0.85
2022-08-26T22:16:58.802Z,1.15
2022-08-26T22:19:25.331Z,0.90
2022-08-26T22:21:52.998Z,0.90
2022-08-26T22:24:20.109Z,0.95
2022-08-26T22:26:47.186Z,0.80
2022-08-26T22:29:14.202Z,0.80
2022-08-26T22:31:40.790Z,0.98
2022-08-26T22:34:08.766Z,1.02
2022-08-26T22:36:36.125Z,1.20
2022-08-26T22:39:10.625Z,0.90
2022-08-26T22:41:37.156Z,0.85
2022-08-26T22:44:03.862Z,0.80
2022-08-26T22:46:30.298Z,0.90
2022-08-26T22:48:56.791Z,0.90
2022-08-26T22:51:23.395Z,1.30
2022-08-26T22:53:49.907Z,0.80
2022-08-26T22:56:18.348Z,0.90
2022-08-26T22:58:45.529Z,1.02
2022-08-26T23:01:12.153Z,1.10
2022-08-26T23:03:38.716Z,0.77
2022-08-26T23:06:06.359Z,0.93
2022-08-26T23:08:32.833Z,0.82
2022-08-26T23:10:59.313Z,1.15
2022-08-26T23:13:25.711Z,1.20
2022-08-26T23:15:59.384Z,0.85
2022-08-26T23:18:25.855Z,1.00
2022-08-26T23:20:52.291Z,0.98
2022-08-26T23:23:18.733Z,0.88
2022-08-26T23:25:45.139Z,0.88
2022-08-26T23:28:12.766Z,1.00
2022-08-26T23:30:39.320Z,1.10
2022-08-26T23:33:05.854Z,1.10
2022-08-26T23:35:32.294Z,0.93
2022-08-26T23:37:59.435Z,1.20
2022-08-26T23:40:28.807Z,1.17
2022-08-26T23:42:56.561Z,1.10
2022-08-26T23:45:24.718Z,0.95
2022-08-26T23:47:51.244Z,1.10
2022-08-26T23:50:19.158Z,0.90
2022-08-26T23:53:04.117Z,1.10
2022-08-26T23:55:31.585Z,0.93
2022-08-26T23:57:58.027Z,1.00
